createdAt,value
2018-07-31T00:03:00.572Z,6.70
2018-07-31T00:08:02.758Z,7.00
2018-07-31T00:13:04.951Z,7.23
2018-07-31T00:18:07.114Z,7.00
2018-07-31T00:23:09.234Z,6.70
2018-07-31T00:28:11.417Z,6.37
2018-07-31T00:33:13.569Z,6.50
2018-07-31T00:38:15.761Z,6.33
2018-07-31T00:43:17.941Z,6.30
2018-07-31T00:48:20.125Z,7.33
2018-07-31T00:53:22.306Z,6.90
2018-07-31T00:58:24.430Z,6.87
2018-07-31T01:03:26.558Z,6.40
2018-07-31T01:08:28.706Z,6.90
2018-07-31T01:13:30.878Z,6.57
2018-07-31T01:18:33.034Z,6.40
2018-07-31T01:23:35.165Z,5.33
2018-07-31T01:28:37.342Z,5.67
2018-07-31T01:33:39.482Z,6.30
2018-07-31T01:38:41.662Z,6.00
2018-07-31T01:43:43.794Z,6.47
2018-07-31T01:48:45.910Z,6.20
2018-07-31T01:53:48.058Z,6.40
2018-07-31T01:58:50.183Z,6.70
2018-07-31T02:03:52.304Z,6.20
2018-07-31T02:08:55.124Z,5.50
2018-07-31T02:13:57.247Z,6.00
2018-07-31T02:18:59.396Z,5.97
2018-07-31T02:24:01.571Z,6.30
2018-07-31T02:29:03.782Z,6.00
2018-07-31T02:34:06.070Z,5.67
2018-07-31T02:39:08.210Z,5.73
2018-07-31T02:44:10.355Z,6.43
2018-07-31T02:49:12.543Z,6.03
2018-07-31T02:54:14.667Z,5.13
2018-07-31T02:59:16.811Z,5.40
2018-07-31T03:04:18.940Z,6.57
2018-07-31T03:09:21.059Z,5.27
2018-07-31T03:14:23.182Z,5.43
2018-07-31T03:19:25.333Z,5.87
2018-07-31T03:24:27.462Z,6.07
2018-07-31T03:29:29.632Z,5.40
2018-07-31T03:34:31.775Z,5.60
2018-07-31T03:39:33.913Z,5.83
2018-07-31T03:44:36.045Z,4.90
2018-07-31T03:49:38.169Z,5.33
2018-07-31T03:54:40.311Z,5.40
2018-07-31T03:59:42.638Z,5.97
2018-07-31T04:04:44.828Z,5.83
2018-07-31T04:09:46.969Z,5.70
2018-07-31T04:14:49.095Z,5.17
2018-07-31T04:19:51.231Z,5.27
2018-07-31T04:24:53.590Z,5.33
2018-07-31T04:29:55.770Z,5.70
2018-07-31T04:34:57.904Z,5.60
2018-07-31T04:40:00.034Z,5.23
2018-07-31T04:45:02.262Z,5.80
2018-07-31T04:50:04.427Z,8.33
2018-07-31T04:55:06.611Z,7.20
2018-07-31T05:00:09.004Z,5.20
2018-07-31T05:05:11.176Z,5.70
2018-07-31T05:10:13.332Z,5.40
2018-07-31T05:15:15.485Z,5.37
2018-07-31T05:20:17.654Z,5.90
2018-07-31T05:25:19.859Z,5.20
2018-07-31T05:30:22.047Z,5.30
2018-07-31T05:35:24.182Z,5.47
2018-07-31T05:40:26.327Z,5.20
2018-07-31T05:45:28.489Z,5.47
2018-07-31T05:50:30.624Z,5.73
2018-07-31T05:55:32.761Z,4.67
2018-07-31T06:00:34.914Z,5.27
2018-07-31T06:05:37.061Z,5.13
2018-07-31T06:10:39.223Z,4.90
2018-07-31T06:15:41.339Z,5.70
2018-07-31T06:20:43.516Z,4.87
2018-07-31T06:25:45.647Z,5.43
2018-07-31T06:30:47.859Z,5.60
2018-07-31T06:35:50.041Z,5.53
2018-07-31T06:40:52.203Z,5.00
2018-07-31T06:45:54.423Z,5.87
2018-07-31T06:50:56.605Z,5.50
2018-07-31T06:55:58.770Z,5.30
2018-07-31T07:01:01.001Z,5.03
2018-07-31T07:06:03.243Z,5.30
2018-07-31T07:11:05.457Z,5.60
2018-07-31T07:16:07.641Z,5.20
2018-07-31T07:21:09.834Z,5.80
2018-07-31T07:26:12.009Z,5.90
2018-07-31T07:31:14.293Z,5.77
2018-07-31T07:36:16.460Z,5.87
2018-07-31T07:41:18.659Z,5.73
2018-07-31T07:46:20.967Z,5.83
2018-07-31T07:51:23.182Z,6.40
2018-07-31T07:56:25.539Z,6.33
2018-07-31T08:01:27.785Z,5.90
2018-07-31T08:06:29.964Z,5.50
2018-07-31T08:11:32.168Z,6.00
2018-07-31T08:16:35.179Z,6.73
2018-07-31T08:21:37.442Z,5.80
2018-07-31T08:26:39.648Z,6.50
2018-07-31T08:31:41.932Z,6.27
2018-07-31T08:36:44.133Z,6.40
2018-07-31T08:41:46.373Z,6.00
2018-07-31T08:46:48.572Z,6.80
2018-07-31T08:51:50.773Z,6.10
2018-07-31T08:56:53.242Z,6.43
2018-07-31T09:01:55.431Z,6.70
2018-07-31T09:06:57.616Z,6.80
2018-07-31T09:11:59.809Z,5.87
2018-07-31T09:17:02.017Z,7.57
2018-07-31T09:22:04.182Z,6.80
2018-07-31T09:27:07.682Z,6.97
2018-07-31T09:32:09.926Z,6.83
2018-07-31T09:37:12.102Z,6.20
2018-07-31T09:42:14.310Z,7.03
2018-07-31T09:47:16.511Z,7.07
2018-07-31T09:52:18.689Z,7.43
2018-07-31T09:57:20.874Z,6.53
2018-07-31T10:02:23.079Z,6.90
2018-07-31T10:07:25.304Z,7.33
2018-07-31T10:12:27.552Z,7.20
2018-07-31T10:17:29.798Z,6.40
2018-07-31T10:22:38.850Z,6.70
2018-07-31T10:27:41.037Z,7.60
2018-07-31T10:32:43.254Z,7.20
2018-07-31T10:37:45.480Z,7.50
2018-07-31T10:42:47.692Z,6.90
2018-07-31T10:47:49.878Z,6.27
2018-07-31T10:52:52.089Z,6.50
2018-07-31T10:57:54.393Z,6.80
2018-07-31T11:02:56.620Z,7.30
2018-07-31T11:07:58.820Z,6.77
2018-07-31T11:13:01.001Z,7.17
2018-07-31T11:18:03.199Z,6.80
2018-07-31T11:23:05.453Z,6.20
2018-07-31T11:28:08.261Z,5.70
2018-07-31T11:33:10.592Z,6.57
2018-07-31T11:38:13.355Z,6.90
2018-07-31T11:43:15.624Z,7.20
2018-07-31T11:48:17.846Z,5.97
2018-07-31T11:53:20.054Z,6.73
2018-07-31T11:58:22.282Z,6.73
2018-07-31T12:03:24.470Z,6.67
2018-07-31T12:08:27.135Z,7.03
2018-07-31T12:13:29.526Z,6.70
2018-07-31T12:18:31.751Z,6.53
2018-07-31T12:23:33.926Z,7.00
2018-07-31T12:28:36.143Z,6.77
2018-07-31T12:33:38.323Z,6.17
2018-07-31T12:38:40.581Z,7.17
2018-07-31T12:43:42.775Z,5.90
2018-07-31T12:48:45.031Z,7.10
2018-07-31T12:53:47.229Z,6.50
2018-07-31T12:58:49.510Z,6.80
2018-07-31T13:03:52.081Z,6.37
2018-07-31T13:08:54.252Z,6.50
2018-07-31T13:13:56.434Z,6.00
2018-07-31T13:18:58.998Z,6.90
2018-07-31T13:24:01.127Z,6.20
2018-07-31T13:29:03.344Z,5.73
2018-07-31T13:34:05.593Z,5.60
2018-07-31T13:39:08.694Z,5.60
2018-07-31T13:44:11.049Z,5.93
2018-07-31T13:49:13.150Z,6.20
2018-07-31T13:54:15.336Z,5.60
2018-07-31T13:59:17.580Z,6.23
2018-07-31T14:04:19.814Z,5.97
2018-07-31T14:09:22.022Z,6.00
2018-07-31T14:14:24.230Z,5.43
2018-07-31T14:19:26.403Z,5.77
2018-07-31T14:24:28.647Z,5.47
2018-07-31T14:29:30.822Z,5.17
2018-07-31T14:34:35.139Z,6.43
2018-07-31T14:39:37.363Z,5.53
2018-07-31T14:44:39.569Z,6.20
2018-07-31T14:49:41.749Z,5.87
2018-07-31T14:54:43.952Z,6.80
2018-07-31T14:59:46.151Z,6.43
2018-07-31T15:04:48.354Z,6.07
2018-07-31T15:09:50.569Z,5.70
2018-07-31T15:14:52.740Z,6.23
2018-07-31T15:19:54.946Z,5.63
2018-07-31T15:24:57.157Z,6.00
2018-07-31T15:29:59.373Z,5.90
2018-07-31T15:35:01.621Z,5.40
2018-07-31T15:40:04.173Z,6.90
2018-07-31T15:45:06.395Z,7.60
2018-07-31T15:50:08.613Z,5.90
2018-07-31T15:55:10.847Z,6.50
2018-07-31T16:00:13.131Z,4.37
2018-07-31T16:05:15.315Z,3.60
2018-07-31T16:10:17.515Z,3.83
2018-07-31T16:15:19.740Z,3.23
2018-07-31T16:20:22.048Z,3.20
2018-07-31T16:25:24.235Z,2.27
2018-07-31T16:30:26.431Z,2.77
2018-07-31T16:35:28.893Z,2.40
2018-07-31T16:40:31.131Z,2.33
2018-07-31T16:45:33.371Z,2.53
2018-07-31T16:50:35.558Z,2.97
2018-07-31T16:55:37.834Z,2.50
2018-07-31T17:00:40.644Z,2.50
2018-07-31T17:05:42.853Z,2.47
2018-07-31T17:10:45.096Z,2.43
2018-07-31T17:15:47.378Z,2.60
2018-07-31T17:20:49.648Z,2.50
2018-07-31T17:25:51.857Z,2.37
2018-07-31T17:30:54.085Z,2.20
2018-07-31T17:35:56.428Z,2.77
2018-07-31T17:40:58.617Z,1.80
2018-07-31T17:46:00.865Z,1.90
2018-07-31T17:51:03.067Z,2.00
2018-07-31T17:56:05.368Z,2.40
2018-07-31T18:01:07.625Z,2.13
2018-07-31T18:06:09.850Z,2.50
2018-07-31T18:11:12.090Z,1.93
2018-07-31T18:16:14.392Z,2.23
2018-07-31T18:21:16.624Z,2.40
2018-07-31T18:26:18.915Z,1.43
2018-07-31T18:31:21.241Z,2.93
2018-07-31T18:36:23.555Z,2.63
2018-07-31T18:41:26.481Z,2.53
2018-07-31T18:46:28.619Z,2.60
2018-07-31T18:51:30.824Z,2.23
2018-07-31T18:56:33.105Z,2.10
2018-07-31T19:01:35.379Z,2.93
2018-07-31T19:06:37.563Z,2.50
2018-07-31T19:11:40.968Z,2.83
2018-07-31T19:16:43.144Z,2.47
2018-07-31T19:21:45.314Z,2.80
2018-07-31T19:26:47.522Z,2.50
2018-07-31T19:31:49.751Z,2.70
2018-07-31T19:36:52.011Z,2.63
2018-07-31T19:41:54.389Z,2.40
2018-07-31T21:39:12.974Z,2.20
2018-07-31T21:44:15.245Z,2.20
2018-07-31T21:49:17.432Z,2.00
2018-07-31T21:54:19.624Z,2.30
2018-07-31T21:59:21.897Z,2.10
2018-07-31T22:04:24.132Z,2.50
2018-07-31T22:09:29.686Z,1.73
2018-07-31T22:14:31.919Z,1.50
2018-07-31T22:19:34.240Z,1.90
2018-07-31T22:24:36.451Z,2.10
2018-07-31T22:29:38.658Z,1.93
2018-07-31T22:34:40.823Z,1.83
2018-07-31T22:39:43.034Z,1.90
2018-07-31T22:44:45.293Z,2.40
2018-07-31T22:49:47.514Z,1.60
2018-07-31T22:54:49.692Z,2.20
2018-07-31T22:59:51.895Z,1.97
2018-07-31T23:04:54.069Z,2.30
2018-07-31T23:09:56.744Z,2.10
2018-07-31T23:14:59.958Z,2.13
2018-07-31T23:20:03.353Z,2.10
2018-07-31T23:25:06.171Z,1.80
2018-07-31T23:30:08.742Z,1.70
2018-07-31T23:35:10.951Z,2.00
2018-07-31T23:40:13.130Z,2.17
2018-07-31T23:45:15.323Z,2.30
2018-07-31T23:50:17.515Z,2.50
2018-07-31T23:55:19.891Z,2.77
